Wabush, Canada
Current Conditions -  °F | °C
As of 10:00 AM on Monday 20 Oct 2014 (Local Time) from CYWK Reporting Station
Overcast Overcast  
Wind Chill: -1°   Ceiling: 1500
Heat Index:   Visibility: 15mi
Dew Point:   Wind: 7mph
Humidity: 87%   Direction: 290°WNW
Pressure: 29.46"   Gusts: NA
Location:  52.9°N, 66.87°W
Report Text: CYWK 201300Z 29006KT 15SM BKN015 OVC060 02/M00 A2946 RMK SC5SC3 SLP998
Loading
Personal Weather Stations






























Interactive Weather Map
Tropical Storm Tracking
New forecast layout! Learn more

10-Day Weather Forecast

Advertisements
Track Severe Weather on mobile